Time;durP1;ratioP1;P1;durP2;ratioP2;P2;SDS_P1;SDS_P2;PMS_P1;PMS_P2;Temp;Humidity;BMP_temperature;BMP_pressure;BME280_temperature;BME280_humidity;BME280_pressure;Samples;Min_cycle;Max_cycle;Signal;HPM_P1;HPM_P2
2022/09/20 00:00:48;;;;;;;9.82;5.80;;;;;;;10.92;100.00;102081.19;6092779;23;20034;-89
2022/09/20 00:03:15;;;;;;;13.48;6.25;;;;;;;10.94;100.00;102088.19;6095078;23;20077;-89
2022/09/20 00:05:43;;;;;;;10.18;6.65;;;;;;;10.93;100.00;102089.13;6093703;23;20033;-89
2022/09/20 00:08:14;;;;;;;11.20;6.18;;;;;;;10.92;100.00;102087.38;6098714;23;20071;-90
2022/09/20 00:10:41;;;;;;;8.95;5.78;;;;;;;10.87;100.00;102078.69;6113529;23;20058;-88
2022/09/20 00:13:09;;;;;;;11.15;5.93;;;;;;;10.88;100.00;102076.88;6114532;23;20006;-88
2022/09/20 00:15:41;;;;;;;13.85;6.47;;;;;;;10.89;100.00;102089.28;6111910;23;20081;-89
2022/09/20 00:18:06;;;;;;;10.70;6.68;;;;;;;10.88;100.00;102088.41;6096614;23;20381;-89
2022/09/20 00:20:31;;;;;;;11.65;5.72;;;;;;;10.84;100.00;102083.22;6091329;23;20010;-89
2022/09/20 00:22:57;;;;;;;8.90;6.07;;;;;;;10.84;100.00;102084.09;6092300;23;20022;-89
2022/09/20 00:25:22;;;;;;;11.13;6.13;;;;;;;10.85;100.00;102088.50;6092768;23;20010;-90
2022/09/20 00:27:47;;;;;;;11.10;6.30;;;;;;;10.84;100.00;102089.44;6068426;23;20095;-89
2022/09/20 00:30:13;;;;;;;12.98;5.72;;;;;;;10.87;100.00;102085.81;6092347;23;20007;-89
2022/09/20 00:32:39;;;;;;;13.75;6.03;;;;;;;10.87;100.00;102085.81;6067252;23;20006;-89
2022/09/20 00:35:09;;;;;;;9.82;5.88;;;;;;;10.80;100.00;102077.13;6067766;23;20010;-88
2022/09/20 00:37:44;;;;;;;12.18;6.60;;;;;;;10.84;100.00;102086.75;6092819;23;20088;-90
2022/09/20 00:40:13;;;;;;;9.50;5.68;;;;;;;10.85;100.00;102091.16;6091541;23;20077;-89
2022/09/20 00:42:39;;;;;;;11.32;5.78;;;;;;;10.79;100.00;102072.72;6092218;23;20329;-89
2022/09/20 00:45:17;;;;;;;11.43;6.35;;;;;;;10.85;100.00;102087.63;6093427;23;20093;-89
2022/09/20 00:47:48;;;;;;;11.88;5.78;;;;;;;10.84;100.00;102084.09;6094632;23;20007;-89
2022/09/20 00:50:26;;;;;;;9.23;5.80;;;;;;;10.84;100.00;102083.22;6094441;23;20054;-89
2022/09/20 00:53:10;;;;;;;12.40;6.05;;;;;;;10.81;100.00;102080.66;6092460;23;20242;-90
2022/09/20 00:55:44;;;;;;;9.23;6.13;;;;;;;10.78;100.00;102086.06;6092253;23;20756;-88
2022/09/20 00:58:10;;;;;;;9.50;5.90;;;;;;;10.70;100.00;102083.66;6091637;23;20094;-89
2022/09/20 01:00:36;;;;;;;9.43;5.90;;;;;;;10.64;100.00;102089.19;6090760;23;20037;-89
2022/09/20 01:03:06;;;;;;;11.23;5.75;;;;;;;10.61;100.00;102089.28;6091836;23;20017;-89
2022/09/20 01:05:32;;;;;;;12.70;6.05;;;;;;;10.58;100.00;102078.75;6092445;23;20021;-89
2022/09/20 01:07:57;;;;;;;12.25;5.85;;;;;;;10.51;100.00;102067.41;6090512;23;20002;-88
2022/09/20 01:10:23;;;;;;;13.05;5.65;;;;;;;10.52;100.00;102079.78;6091156;23;20013;-89
2022/09/20 01:12:50;;;;;;;11.10;5.93;;;;;;;10.48;100.00;102076.34;6092541;23;20049;-89
2022/09/20 01:15:17;;;;;;;9.13;5.72;;;;;;;10.43;100.00;102074.75;6091843;23;20045;-89
2022/09/20 01:17:49;;;;;;;10.25;5.30;;;;;;;10.35;100.00;102082.97;6092884;23;20010;-88
2022/09/20 01:20:17;;;;;;;8.73;5.18;;;;;;;10.28;100.00;102085.84;6092661;23;20050;-89
2022/09/20 01:23:07;;;;;;;12.70;6.05;;;;;;;10.21;100.00;102079.81;6066162;23;20034;-88
2022/09/20 01:25:51;;;;;;;13.25;6.07;;;;;;;10.24;100.00;102087.69;6093077;23;20007;-89
2022/09/20 01:28:16;;;;;;;12.05;5.97;;;;;;;10.20;100.00;102075.41;6066850;23;20033;-90
2022/09/20 01:31:01;;;;;;;8.00;5.30;;;;;;;10.30;100.00;102087.56;6113800;23;19998;-89
2022/09/20 01:33:48;;;;;;;9.35;6.35;;;;;;;10.34;100.00;102088.34;6115262;23;20034;-89
2022/09/20 01:36:42;;;;;;;9.88;4.78;;;;;;;10.34;100.00;102078.56;6111273;23;20013;-90
2022/09/20 01:39:16;;;;;;;10.83;5.10;;;;;;;10.38;100.00;102077.56;6098347;23;20086;-90
2022/09/20 01:41:41;;;;;;;7.72;4.88;;;;;;;10.40;100.00;102086.34;6097043;23;20258;-89
2022/09/20 01:44:27;;;;;;;10.18;4.68;;;;;;;10.44;100.00;102079.16;6095017;23;20014;-88
2022/09/20 01:46:59;;;;;;;11.10;4.75;;;;;;;10.43;100.00;102072.94;6091384;23;20109;-88
2022/09/20 01:49:54;;;;;;;10.70;4.43;;;;;;;10.48;100.00;102084.31;6090035;23;20025;-90
2022/09/20 01:52:31;;;;;;;9.57;4.50;;;;;;;10.53;100.00;102084.19;6077714;23;20085;-89
2022/09/20 01:55:34;;;;;;;10.00;4.57;;;;;;;10.55;100.00;102082.34;6092027;23;20014;-90
2022/09/20 01:58:30;;;;;;;10.68;4.60;;;;;;;10.56;100.00;102075.25;6092745;23;20429;-90
2022/09/20 02:01:04;;;;;;;8.35;4.82;;;;;;;10.56;100.00;102075.25;6093853;23;20049;-90
2022/09/20 02:04:01;;;;;;;11.55;4.93;;;;;;;10.57;100.00;102083.16;6093059;23;20010;-91
2022/09/20 02:06:41;;;;;;;11.73;5.65;;;;;;;10.57;100.00;102085.81;6086224;23;20026;-90
2022/09/20 02:09:48;;;;;;;12.25;4.93;;;;;;;10.54;100.00;102077.97;6093021;23;20184;-89
2022/09/20 02:12:43;;;;;;;8.57;4.50;;;;;;;10.59;100.00;102091.13;6096029;23;20012;-89
2022/09/20 02:15:32;;;;;;;10.25;4.53;;;;;;;10.56;100.00;102080.56;6069446;23;20029;-89
2022/09/20 02:18:13;;;;;;;9.93;4.88;;;;;;;10.58;100.00;102089.38;6092634;23;20530;-89
2022/09/20 02:20:51;;;;;;;13.80;4.68;;;;;;;10.58;100.00;102086.72;6093088;23;20022;-88
2022/09/20 02:23:37;;;;;;;7.18;4.35;;;;;;;10.58;100.00;102086.72;6093910;23;20021;-89
2022/09/20 02:26:24;;;;;;;10.48;4.63;;;;;;;10.57;100.00;102088.50;6093607;23;20006;-88
2022/09/20 02:29:05;;;;;;;8.93;4.90;;;;;;;10.58;100.00;102079.59;6093017;23;20013;-89
2022/09/20 02:32:11;;;;;;;11.23;4.78;;;;;;;10.58;100.00;102082.25;6093075;23;20028;-88
2022/09/20 02:34:50;;;;;;;11.90;4.80;;;;;;;10.58;100.00;102092.06;6093571;23;20482;-89
2022/09/20 02:37:24;;;;;;;13.43;5.38;;;;;;;10.55;100.00;102078.81;6092273;23;20018;-89
2022/09/20 02:40:24;;;;;;;10.52;5.22;;;;;;;10.55;100.00;102081.50;6066756;23;20011;-90
2022/09/20 02:43:31;;;;;;;9.18;5.50;;;;;;;10.57;100.00;102079.63;6093421;23;20018;-89
2022/09/20 02:46:12;;;;;;;10.55;5.85;;;;;;;10.56;100.00;102085.88;6042005;23;20018;-89
2022/09/20 02:49:01;;;;;;;13.73;5.95;;;;;;;10.53;100.00;102078.84;6095138;23;20463;-90
2022/09/20 02:51:42;;;;;;;11.30;5.90;;;;;;;10.50;100.00;102075.44;6095666;23;20065;-89
2022/09/20 02:55:06;;;;;;;13.95;5.68;;;;;;;10.47;100.00;102077.25;6105738;23;19994;-89
2022/09/20 02:57:37;;;;;;;10.25;5.57;;;;;;;10.45;100.00;102076.44;5970526;24;20016;-89
2022/09/20 03:00:13;;;;;;;10.02;5.03;;;;;;;10.44;100.00;102076.47;5969431;24;20032;-90
2022/09/20 03:03:01;;;;;;;8.70;4.95;;;;;;;10.40;100.00;102070.38;5968334;24;20024;-89
2022/09/20 03:05:42;;;;;;;11.07;6.05;;;;;;;10.43;100.00;102080.06;5924802;24;20352;-89
2022/09/20 03:08:28;;;;;;;12.65;5.35;;;;;;;10.44;100.00;102081.81;5947112;24;20012;-88
2022/09/20 03:11:17;;;;;;;12.98;5.35;;;;;;;10.41;100.00;102072.13;5948744;24;20008;-89
2022/09/20 03:14:01;;;;;;;12.35;5.75;;;;;;;10.42;100.00;102068.56;5950735;24;20012;-89
2022/09/20 03:16:42;;;;;;;14.65;5.55;;;;;;;10.43;100.00;102072.09;5925512;24;20485;-89
2022/09/20 03:19:22;;;;;;;10.73;5.65;;;;;;;10.44;100.00;102069.38;5948656;24;20129;-88
2022/09/20 03:22:19;;;;;;;13.45;5.85;;;;;;;10.45;100.00;102070.25;5947148;24;20154;-89
2022/09/20 03:25:13;;;;;;;12.02;5.35;;;;;;;10.40;100.00;102062.38;5947783;24;20462;-88
2022/09/20 03:28:02;;;;;;;9.18;4.78;;;;;;;10.46;100.00;102072.00;5998184;23;20021;-89
2022/09/20 03:31:02;;;;;;;12.60;5.43;;;;;;;10.47;100.00;102076.41;6066411;23;20013;-88
2022/09/20 03:33:50;;;;;;;12.00;5.15;;;;;;;10.46;100.00;102080.84;6091891;23;20002;-88
2022/09/20 03:37:00;;;;;;;9.60;5.18;;;;;;;10.48;100.00;102079.00;6092492;23;20569;-88
2022/09/20 03:39:44;;;;;;;12.35;6.28;;;;;;;10.46;100.00;102080.84;5946698;24;20020;-89
2022/09/20 03:42:12;;;;;;;;;;;;;;;10.49;100.00;102079.88;5947975;24;20019;-89
2022/09/20 03:44:59;;;;;;;12.85;5.95;;;;;;;10.44;100.00;102072.03;5947043;24;19915;-90
2022/09/20 03:47:36;;;;;;;12.27;5.97;;;;;;;10.45;100.00;102072.94;5946340;24;20012;-89
2022/09/20 03:50:21;;;;;;;11.68;5.50;;;;;;;10.41;100.00;102071.28;5946145;24;20012;-90
2022/09/20 03:53:15;;;;;;;11.50;5.35;;;;;;;10.41;100.00;102077.47;5946594;24;20032;-89
2022/09/20 03:55:48;;;;;;;13.40;5.47;;;;;;;10.41;100.00;102073.94;5946090;24;20561;-89
2022/09/20 03:58:27;;;;;;;12.48;5.60;;;;;;;10.41;100.00;102066.81;5947333;24;20052;-89
2022/09/20 04:01:11;;;;;;;12.35;5.95;;;;;;;10.44;100.00;102069.38;5946903;24;20504;-89
2022/09/20 04:04:00;;;;;;;11.50;5.95;;;;;;;10.43;100.00;102072.94;5947210;24;20021;-89
2022/09/20 04:06:34;;;;;;;11.68;5.85;;;;;;;10.45;100.00;102068.47;5946582;24;20172;-89
2022/09/20 04:09:05;;;;;;;11.90;6.40;;;;;;;10.47;100.00;102076.41;5949419;24;20072;-89
2022/09/20 04:11:41;;;;;;;12.63;6.10;;;;;;;10.42;100.00;102067.69;5949046;24;20011;-89
2022/09/20 04:14:28;;;;;;;10.93;6.57;;;;;;;10.47;100.00;102082.59;6073077;23;20085;-89
2022/09/20 04:17:23;;;;;;;13.88;6.82;;;;;;;10.47;100.00;102081.72;6093754;23;20014;-90
2022/09/20 04:20:02;;;;;;;13.85;6.78;;;;;;;10.47;100.00;102081.72;6102604;23;20002;-90
2022/09/20 04:22:28;;;;;;;15.15;7.07;;;;;;;10.42;100.00;102079.19;6114019;23;19990;-89
2022/09/20 04:25:19;;;;;;;13.88;6.93;;;;;;;10.46;100.00;102074.66;6114571;23;19986;-89
2022/09/20 04:27:56;;;;;;;13.73;7.00;;;;;;;10.46;100.00;102064.88;6111595;23;20003;-90
2022/09/20 04:30:29;;;;;;;14.23;6.20;;;;;;;10.41;100.00;102056.16;6092361;23;20010;-90
2022/09/20 04:33:02;;;;;;;11.55;6.07;;;;;;;10.44;100.00;102063.16;6091960;23;20123;-89
2022/09/20 04:38:27;;;;;;;8.73;5.80;;;;;;;10.48;100.00;102070.16;6093052;23;20065;-89
2022/09/20 04:41:16;;;;;;;12.77;5.85;;;;;;;10.51;100.00;102074.50;6092753;23;20010;-89
2022/09/20 04:44:10;;;;;;;7.75;5.28;;;;;;;10.47;100.00;102057.75;6092414;23;20013;-90
2022/09/20 04:46:36;;;;;;;8.75;5.47;;;;;;;10.49;100.00;102069.22;6093530;23;20010;-90
2022/09/20 04:49:43;;;;;;;8.50;5.05;;;;;;;10.51;100.00;102069.19;6092444;23;20034;-89
2022/09/20 04:52:30;;;;;;;9.90;5.63;;;;;;;10.52;100.00;102073.59;5952523;24;20016;-89
2022/09/20 04:55:34;;;;;;;7.88;4.80;;;;;;;10.52;100.00;102074.44;5975756;24;20023;-89
2022/09/20 04:58:31;;;;;;;9.95;5.15;;;;;;;10.51;100.00;102072.72;5975442;24;20008;-89
2022/09/20 05:01:33;;;;;;;10.63;4.78;;;;;;;10.47;100.00;102074.59;5975429;24;20027;-89
2022/09/20 05:04:07;;;;;;;10.73;5.68;;;;;;;10.51;100.00;102077.19;5975696;24;20098;-89
2022/09/20 05:07:19;;;;;;;9.93;5.20;;;;;;;10.51;100.00;102087.81;5975346;24;20086;-89
2022/09/20 05:10:14;;;;;;;10.40;4.70;;;;;;;10.48;100.00;102091.44;5976027;24;20019;-91
2022/09/20 05:13:06;;;;;;;6.15;4.55;;;;;;;10.47;100.00;102089.72;5975846;24;20004;-89
2022/09/20 05:15:40;;;;;;;10.10;4.60;;;;;;;10.47;100.00;102082.59;5973675;24;20119;-88
2022/09/20 05:18:42;;;;;;;9.23;4.72;;;;;;;10.48;100.00;102086.97;5974759;24;20091;-89
2022/09/20 05:21:33;;;;;;;6.65;4.38;;;;;;;10.45;100.00;102087.09;5974875;24;20436;-89
2022/09/20 05:24:04;;;;;;;6.93;4.47;;;;;;;10.43;100.00;102096.91;5974775;24;20079;-89
2022/09/20 05:27:02;;;;;;;8.57;4.80;;;;;;;10.47;100.00;102098.56;5949761;24;20012;-87
2022/09/20 05:29:41;;;;;;;7.95;4.55;;;;;;;10.45;100.00;102105.72;6044316;23;20381;-89
2022/09/20 05:32:24;;;;;;;8.85;4.25;;;;;;;10.45;100.00;102105.72;6091621;23;20002;-90
2022/09/20 05:35:29;;;;;;;9.40;4.40;;;;;;;10.46;100.00;102109.25;6091343;23;20058;-89
2022/09/20 05:38:10;;;;;;;9.55;4.35;;;;;;;10.43;100.00;102102.22;6092450;23;20260;-90
2022/09/20 05:41:13;;;;;;;10.07;4.30;;;;;;;10.46;100.00;102107.47;6109226;23;20006;-90
2022/09/20 05:44:03;;;;;;;9.68;4.63;;;;;;;10.48;100.00;102110.94;6113916;23;20106;-89
2022/09/20 05:46:38;;;;;;;8.68;4.65;;;;;;;10.46;100.00;102111.94;6090598;23;20148;-89
2022/09/20 05:49:34;;;;;;;11.07;5.07;;;;;;;10.39;100.00;102124.53;6115672;23;20006;-89
2022/09/20 05:52:02;;;;;;;11.70;5.82;;;;;;;10.29;100.00;102117.75;6095411;23;20339;-90
2022/09/20 05:54:54;;;;;;;12.55;6.53;;;;;;;10.26;100.00;102120.50;6069751;23;20081;-89
2022/09/20 05:58:00;;;;;;;13.48;6.78;;;;;;;10.32;100.00;102124.75;6095411;23;20006;-89
2022/09/20 06:00:31;;;;;;;9.38;5.95;;;;;;;10.32;100.00;102122.09;6035878;23;20680;-89
2022/09/20 06:03:29;;;;;;;12.45;6.50;;;;;;;10.37;100.00;102131.72;6100941;23;20010;-90
2022/09/20 06:06:09;;;;;;;14.05;6.22;;;;;;;10.45;100.00;102135.00;6105935;23;20156;-88
2022/09/20 06:08:48;;;;;;;13.20;6.70;;;;;;;10.58;100.00;102134.66;6107727;23;20027;-88
2022/09/20 06:11:13;;;;;;;14.60;6.80;;;;;;;10.70;100.00;102137.81;6105322;23;20010;-91
2022/09/20 06:14:02;;;;;;;13.97;7.27;;;;;;;10.78;100.00;102134.88;6102512;23;20305;-89
2022/09/20 06:16:47;;;;;;;13.30;7.43;;;;;;;10.87;100.00;102133.75;6073739;23;20250;-88
2022/09/20 06:19:32;;;;;;;14.65;7.10;;;;;;;10.96;100.00;102136.97;6094464;23;20118;-87
2022/09/20 06:22:10;;;;;;;15.38;7.32;;;;;;;10.99;100.00;102143.97;6095056;23;20002;-89
2022/09/20 06:24:54;;;;;;;12.43;6.80;;;;;;;11.09;99.80;102142.78;6094617;23;20093;-88
2022/09/20 06:27:25;;;;;;;11.95;7.13;;;;;;;11.15;99.77;102139.03;6093875;23;20421;-88
2022/09/20 06:29:57;;;;;;;12.68;6.97;;;;;;;11.26;99.49;102142.22;6068370;23;20011;-89
2022/09/20 06:32:22;;;;;;;11.98;6.30;;;;;;;11.28;98.53;102145.72;6092991;23;20006;-84
2022/09/20 06:34:48;;;;;;;9.93;6.65;;;;;;;11.28;98.55;102144.84;6090876;23;20093;-85
2022/09/20 06:43:29;;;;;;;12.00;6.57;;;;;;;11.26;97.76;102138.69;5974335;24;20023;-85
2022/09/20 06:45:55;;;;;;;9.05;5.88;;;;;;;11.27;97.88;102141.31;5951424;24;20064;-87
2022/09/20 06:48:20;;;;;;;8.43;5.78;;;;;;;11.35;97.65;102149.91;5974413;24;20016;-87
2022/09/20 06:50:45;;;;;;;16.70;9.50;;;;;;;11.38;97.33;102157.81;5974983;24;20008;-85
2022/09/20 06:53:16;;;;;;;8.65;5.75;;;;;;;11.39;97.65;102156.91;5975005;24;20095;-87
2022/09/20 06:55:43;;;;;;;8.75;5.55;;;;;;;11.40;97.07;102163.97;5973025;24;20016;-87
2022/09/20 06:58:09;;;;;;;9.15;5.65;;;;;;;11.36;97.33;102157.00;5974438;24;20020;-85
2022/09/20 07:00:35;;;;;;;10.48;6.03;;;;;;;11.47;97.77;102164.66;5975979;24;20019;-86
2022/09/20 07:03:00;;;;;;;9.65;6.00;;;;;;;11.51;97.78;102150.28;5979662;24;20012;-87
2022/09/20 07:05:26;;;;;;;10.82;6.15;;;;;;;11.69;97.75;102162.09;5979671;24;20028;-86
2022/09/20 07:07:57;;;;;;;9.70;5.72;;;;;;;11.76;96.81;102163.66;5983436;24;20103;-85
2022/09/20 07:10:26;;;;;;;7.65;5.30;;;;;;;11.80;95.88;102153.75;5990903;24;20087;-86
2022/09/20 07:12:55;;;;;;;8.93;6.35;;;;;;;11.83;95.54;102151.88;5993857;24;20107;-86
2022/09/20 07:15:23;;;;;;;20.83;12.60;;;;;;;11.89;94.85;102154.31;6108413;23;20052;-87
2022/09/20 07:17:49;;;;;;;10.20;6.25;;;;;;;11.98;94.81;102157.59;6093619;23;20006;-86
2022/09/20 07:20:15;;;;;;;8.10;5.95;;;;;;;11.94;94.04;102151.47;6091661;23;20015;-85
2022/09/20 07:22:40;;;;;;;9.90;5.75;;;;;;;12.01;94.43;102158.34;6091420;23;20340;-85
2022/09/20 07:25:06;;;;;;;7.63;5.53;;;;;;;12.04;93.80;102163.59;6091618;23;20417;-86
2022/09/20 07:27:31;;;;;;;9.73;5.65;;;;;;;12.11;92.71;102154.41;6092814;23;20011;-85
2022/09/20 07:29:57;;;;;;;8.32;5.30;;;;;;;12.29;93.56;102152.88;6092355;23;20061;-86
2022/09/20 07:32:22;;;;;;;10.10;6.07;;;;;;;12.50;92.53;102159.22;6091906;23;20028;-86
2022/09/20 07:34:48;;;;;;;7.93;5.05;;;;;;;12.59;91.02;102147.31;6089715;23;20010;-85
2022/09/20 07:37:16;;;;;;;10.60;5.20;;;;;;;12.75;90.03;102153.81;6090536;23;20014;-86
2022/09/20 07:39:41;;;;;;;8.07;5.28;;;;;;;12.85;88.90;102152.50;6091423;23;20034;-87
2022/09/20 07:42:06;;;;;;;11.90;5.40;;;;;;;13.10;87.92;102157.72;6090283;23;20010;-87
2022/09/20 07:44:32;;;;;;;7.57;5.25;;;;;;;13.27;86.21;102158.88;6090058;23;20061;-86
2022/09/20 07:46:58;;;;;;;10.43;5.35;;;;;;;13.42;86.19;102156.44;6088890;23;20012;-87
2022/09/20 07:49:25;;;;;;;9.95;5.05;;;;;;;13.64;84.42;102166.22;6090241;23;20038;-86
2022/09/20 07:51:51;;;;;;;9.27;4.75;;;;;;;13.89;83.77;102158.88;6090665;23;20002;-87
2022/09/20 07:54:17;;;;;;;12.27;5.10;;;;;;;14.12;81.63;102171.25;6090601;23;20042;-86
2022/09/20 07:56:43;;;;;;;15.88;8.52;;;;;;;14.35;81.85;102172.91;6089359;23;20008;-86
2022/09/20 07:59:09;;;;;;;8.25;5.25;;;;;;;14.66;80.74;102174.19;6091163;23;20002;-87
2022/09/20 08:01:35;;;;;;;7.43;4.30;;;;;;;15.33;77.39;102176.28;6090072;23;20015;-87
2022/09/20 08:04:01;;;;;;;8.52;4.22;;;;;;;15.58;76.37;102181.28;6091530;23;20014;-87
2022/09/20 08:06:26;;;;;;;9.57;4.72;;;;;;;15.60;74.22;102176.72;6090751;23;20138;-90
2022/09/20 08:08:51;;;;;;;8.65;4.60;;;;;;;15.48;74.93;102181.84;6090126;23;20443;-86
2022/09/20 08:11:20;;;;;;;6.53;4.03;;;;;;;15.38;74.71;102182.31;6090944;23;20551;-87
2022/09/20 08:13:53;;;;;;;7.18;4.30;;;;;;;15.30;76.02;102187.19;6094402;23;20090;-86
2022/09/20 08:16:19;;;;;;;7.28;4.05;;;;;;;15.24;74.90;102190.16;6091046;23;20037;-86
2022/09/20 08:18:50;;;;;;;5.75;3.55;;;;;;;15.18;74.39;102190.47;6103770;23;19986;-85
2022/09/20 08:21:16;;;;;;;5.70;2.90;;;;;;;15.04;74.17;102193.81;6110304;23;20005;-86
2022/09/20 08:23:44;;;;;;;4.40;3.10;;;;;;;14.77;74.08;102195.13;6116452;23;20011;-85
2022/09/20 08:26:12;;;;;;;7.10;2.85;;;;;;;15.14;74.19;102195.13;6092308;23;19994;-86
2022/09/20 08:28:38;;;;;;;4.80;3.10;;;;;;;16.55;72.13;102185.16;6117052;23;20006;-85
2022/09/20 08:31:08;;;;;;;6.07;2.90;;;;;;;18.21;64.88;102189.94;6108460;23;20018;-85
2022/09/20 08:33:35;;;;;;;5.20;2.78;;;;;;;19.43;59.18;102194.69;6067595;23;20014;-85
2022/09/20 08:36:01;;;;;;;6.90;2.35;;;;;;;20.37;56.85;102199.97;6068276;23;20002;-85
2022/09/20 08:38:26;;;;;;;4.57;2.40;;;;;;;21.29;51.77;102183.34;6068342;23;20580;-85
2022/09/20 08:41:05;;;;;;;9.40;5.00;;;;;;;22.38;53.04;102199.38;6094382;23;20014;-85
2022/09/20 08:44:03;;;;;;;5.97;2.47;;;;;;;22.79;52.96;102200.63;6092996;23;20195;-85
2022/09/20 08:46:34;;;;;;;5.82;1.75;;;;;;;23.23;46.27;102204.28;6091191;23;20010;-86
2022/09/20 08:49:02;;;;;;;4.57;2.47;;;;;;;23.55;44.13;102197.00;6091717;23;20012;-86
2022/09/20 08:51:32;;;;;;;5.20;2.33;;;;;;;23.91;43.89;102207.63;6065675;23;20002;-85
2022/09/20 08:53:58;;;;;;;5.82;2.00;;;;;;;24.33;43.76;102201.19;6090685;23;20081;-86
2022/09/20 08:56:27;;;;;;;6.20;1.73;;;;;;;24.72;41.97;102195.94;6090259;23;20597;-85
2022/09/20 08:58:53;;;;;;;4.45;1.77;;;;;;;25.03;39.30;102199.47;6065449;23;20014;-85
2022/09/20 09:01:23;;;;;;;3.30;1.30;;;;;;;25.25;40.90;102198.41;6065249;23;20009;-86
2022/09/20 09:04:13;;;;;;;3.60;1.60;;;;;;;25.44;42.90;102205.75;6089736;23;20026;-85
2022/09/20 09:06:39;;;;;;;5.55;1.50;;;;;;;25.63;37.37;102196.72;6072506;23;20088;-86
2022/09/20 09:09:05;;;;;;;4.07;1.90;;;;;;;26.08;36.95;102207.03;6089713;23;20432;-85
2022/09/20 09:11:30;;;;;;;5.07;1.60;;;;;;;26.43;37.35;102206.38;6089502;23;20024;-86
2022/09/20 09:14:01;;;;;;;6.63;1.60;;;;;;;26.79;35.89;102207.38;6089165;23;20103;-86
2022/09/20 09:16:31;;;;;;;4.20;1.08;;;;;;;27.27;33.95;102208.16;6089654;23;20583;-86
2022/09/20 09:18:57;;;;;;;4.60;1.35;;;;;;;27.52;32.61;102206.53;6089873;23;20077;-86
2022/09/20 09:21:28;;;;;;;5.60;2.22;;;;;;;27.73;34.03;102209.84;6088986;23;20405;-85
2022/09/20 09:24:15;;;;;;;4.60;1.35;;;;;;;28.16;35.56;102201.78;6088583;23;20006;-86
2022/09/20 09:26:42;;;;;;;4.57;1.38;;;;;;;27.85;29.84;102209.63;6089470;23;20227;-87
2022/09/20 09:29:23;;;;;;;7.80;1.38;;;;;;;28.32;33.95;102196.44;6089781;23;20002;-86
2022/09/20 09:31:51;;;;;;;4.47;1.10;;;;;;;28.47;29.41;102211.28;6089428;23;20002;-85
2022/09/20 09:34:27;;;;;;;5.95;1.20;;;;;;;28.98;31.69;102194.94;6088965;23;20006;-86
2022/09/20 09:36:54;;;;;;;4.38;0.88;;;;;;;28.42;28.98;102204.56;6089290;23;20061;-86
2022/09/20 09:39:29;;;;;;;5.10;1.20;;;;;;;26.48;33.68;102201.34;6063846;23;20006;-85
2022/09/20 09:41:55;;;;;;;4.10;1.05;;;;;;;25.78;33.94;102210.81;6063519;23;20077;-85
2022/09/20 09:44:29;;;;;;;2.78;0.85;;;;;;;25.16;35.11;102204.69;6088739;23;20037;-85
2022/09/20 09:46:56;;;;;;;3.45;1.10;;;;;;;23.78;36.16;102213.25;6090011;23;20165;-85
2022/09/20 09:49:25;;;;;;;4.35;1.70;;;;;;;22.55;37.54;102204.31;6089462;23;20010;-86
2022/09/20 09:52:13;;;;;;;3.55;1.08;;;;;;;22.03;39.90;102211.13;6089781;23;20033;-86
2022/09/20 09:54:47;;;;;;;3.60;1.40;;;;;;;21.95;38.76;102215.44;6089699;23;20006;-85
2022/09/20 09:57:25;;;;;;;3.97;1.02;;;;;;;21.22;39.96;102206.44;6069825;23;20015;-85
2022/09/20 10:00:11;;;;;;;5.53;1.20;;;;;;;20.53;42.05;102218.72;6093774;23;20010;-84
2022/09/20 10:02:54;;;;;;;4.53;1.13;;;;;;;19.84;42.69;102227.06;6093028;23;20010;-86
2022/09/20 10:05:53;;;;;;;4.75;1.08;;;;;;;19.39;44.33;102215.63;6092551;23;20459;-86
2022/09/20 10:08:40;;;;;;;3.75;1.02;;;;;;;18.67;46.18;102219.41;6092763;23;20452;-85
2022/09/20 10:11:28;;;;;;;4.38;1.13;;;;;;;18.19;47.99;102217.94;6097364;23;20006;-85
2022/09/20 10:14:04;;;;;;;4.97;1.60;;;;;;;17.84;48.98;102224.47;6092525;23;20385;-85
2022/09/20 10:16:53;;;;;;;4.78;1.10;;;;;;;17.49;49.30;102218.47;6092315;23;20006;-85
2022/09/20 10:19:36;;;;;;;5.25;1.20;;;;;;;17.40;50.55;102209.09;6092653;23;20010;-85
2022/09/20 10:22:18;;;;;;;6.22;1.20;;;;;;;17.22;50.17;102220.91;6067867;23;20033;-85
2022/09/20 10:25:22;;;;;;;5.10;1.35;;;;;;;16.95;51.02;102212.56;6066849;23;20420;-85
2022/09/20 10:28:04;;;;;;;3.72;1.20;;;;;;;16.74;53.50;102211.94;6092517;23;20002;-85
2022/09/20 10:30:43;;;;;;;4.45;1.40;;;;;;;16.62;54.10;102215.28;6066343;23;20490;-85
2022/09/20 10:33:26;;;;;;;6.10;1.33;;;;;;;16.35;54.54;102221.19;6091990;23;19998;-85
2022/09/20 10:36:15;;;;;;;4.78;1.30;;;;;;;16.14;55.60;102211.59;6091404;23;20081;-85
2022/09/20 10:38:49;;;;;;;5.57;1.30;;;;;;;15.79;55.92;102216.94;6092153;23;20007;-85
2022/09/20 10:44:18;;;;;;;5.35;1.20;;;;;;;15.68;57.88;102222.88;6091427;23;20017;-85
2022/09/20 10:47:05;;;;;;;4.15;1.25;;;;;;;15.85;57.47;102222.03;6092020;23;20093;-85
2022/09/20 10:49:46;;;;;;;4.60;1.20;;;;;;;15.75;57.54;102227.91;6090746;23;20018;-85
2022/09/20 10:52:30;;;;;;;6.05;1.45;;;;;;;15.76;58.16;102221.59;6091935;23;20049;-85
2022/09/20 10:55:19;;;;;;;4.15;1.30;;;;;;;15.91;59.09;102221.69;6091473;23;20010;-85
2022/09/20 10:57:47;;;;;;;3.60;1.20;;;;;;;16.08;57.75;102219.94;6092724;23;20002;-83
2022/09/20 11:00:25;;;;;;;4.75;1.48;;;;;;;16.22;58.51;102230.84;6092539;23;20002;-84
2022/09/20 11:03:11;;;;;;;8.60;1.30;;;;;;;16.32;57.64;102228.53;6091781;23;20006;-82
2022/09/20 11:06:02;;;;;;;5.25;1.38;;;;;;;16.46;58.37;102220.59;6064809;23;20074;-83
2022/09/20 11:08:32;;;;;;;6.65;1.60;;;;;;;16.82;56.38;102222.28;6083617;23;20007;-84
2022/09/20 11:11:04;;;;;;;8.68;1.70;;;;;;;17.11;57.26;102220.66;6084600;23;20011;-84
2022/09/20 11:13:48;;;;;;;4.28;1.33;;;;;;;17.38;54.54;102229.84;6081838;23;20014;-83
2022/09/20 11:16:22;;;;;;;4.00;1.20;;;;;;;17.73;53.77;102226.94;6085126;23;20007;-84
2022/09/20 11:18:50;;;;;;;;;;;;;;;18.34;54.39;102223.25;6086797;23;20046;-85
2022/09/20 11:21:27;;;;;;;8.32;2.60;;;;;;;18.53;52.61;102230.22;6087407;23;19972;-85
2022/09/20 11:23:59;;;;;;;4.63;1.20;;;;;;;18.66;50.57;102226.63;6079410;23;20354;-85
2022/09/20 11:26:30;;;;;;;4.05;1.33;;;;;;;18.72;49.76;102230.78;6065030;23;20110;-84
2022/09/20 11:29:06;;;;;;;4.13;1.30;;;;;;;18.55;49.83;102223.72;6066038;23;20006;-85
2022/09/20 11:31:41;;;;;;;4.07;1.40;;;;;;;18.62;51.20;102240.41;6066031;23;19999;-84
2022/09/20 11:34:17;;;;;;;5.35;1.38;;;;;;;18.40;50.13;102227.41;6066287;23;20007;-84
2022/09/20 11:36:56;;;;;;;3.92;1.15;;;;;;;18.15;50.07;102238.81;6065026;23;20013;-85
2022/09/20 11:39:27;;;;;;;6.70;1.42;;;;;;;18.17;50.01;102237.75;6062357;23;20011;-84
2022/09/20 11:41:56;;;;;;;5.18;1.38;;;;;;;18.50;50.74;102236.66;6063856;23;20066;-84
2022/09/20 11:44:21;;;;;;;4.05;1.20;;;;;;;21.29;44.29;102234.78;6063294;23;20011;-84
2022/09/20 11:46:54;;;;;;;3.15;1.05;;;;;;;24.53;38.60;102228.50;6061066;23;20476;-84
2022/09/20 11:49:26;;;;;;;2.83;0.90;;;;;;;26.25;32.84;102228.13;6062308;23;20011;-85
2022/09/20 11:52:17;;;;;;;5.88;1.15;;;;;;;24.63;36.42;102232.16;6062523;23;20018;-85
2022/09/20 11:54:57;;;;;;;4.57;1.20;;;;;;;21.83;39.25;102239.78;6059994;23;20346;-85
2022/09/20 11:57:23;;;;;;;6.32;1.10;;;;;;;20.15;42.58;102246.59;6062381;23;20070;-86
2022/09/20 11:59:53;;;;;;;3.67;0.90;;;;;;;18.85;45.78;102250.66;6062932;23;20370;-84
2022/09/20 12:02:19;;;;;;;2.20;0.88;;;;;;;18.02;47.58;102251.31;6061602;23;20362;-84
2022/09/20 12:04:48;;;;;;;5.27;1.40;;;;;;;17.35;48.27;102254.25;6070704;23;20017;-85
2022/09/20 12:07:43;;;;;;;5.45;0.90;;;;;;;16.81;50.69;102245.63;6090867;23;20370;-83
2022/09/20 12:10:31;;;;;;;3.80;0.93;;;;;;;16.40;52.36;102247.81;6086831;23;20069;-84
2022/09/20 12:13:00;;;;;;;5.32;1.20;;;;;;;16.11;54.48;102239.47;6090464;23;20009;-84
2022/09/20 12:15:35;;;;;;;3.13;0.93;;;;;;;16.07;55.12;102253.13;6090539;23;20014;-84
2022/09/20 12:18:11;;;;;;;4.45;1.00;;;;;;;16.14;55.59;102251.88;6090525;23;20029;-84